sensor_id;sensor_type;location;lat;lon;timestamp;P1;durP1;ratioP1;P2;durP2;ratioP2
52590;SDS011;38483;42.620;25.394;2023-02-28T00:01:21;16.83;;;9.83;;
52590;SDS011;38483;42.620;25.394;2023-02-28T00:03:48;12.70;;;9.63;;
52590;SDS011;38483;42.620;25.394;2023-02-28T00:06:16;14.83;;;9.80;;
52590;SDS011;38483;42.620;25.394;2023-02-28T00:08:43;14.50;;;9.97;;
52590;SDS011;38483;42.620;25.394;2023-02-28T00:11:12;18.10;;;9.97;;
52590;SDS011;38483;42.620;25.394;2023-02-28T00:13:41;14.70;;;10.07;;
52590;SDS011;38483;42.620;25.394;2023-02-28T00:16:11;11.87;;;9.43;;
52590;SDS011;38483;42.620;25.394;2023-02-28T00:18:39;13.50;;;9.63;;
52590;SDS011;38483;42.620;25.394;2023-02-28T00:21:07;16.40;;;10.23;;
52590;SDS011;38483;42.620;25.394;2023-02-28T00:23:34;19.03;;;10.27;;
52590;SDS011;38483;42.620;25.394;2023-02-28T00:26:02;17.33;;;10.50;;
52590;SDS011;38483;42.620;25.394;2023-02-28T00:28:29;13.67;;;10.07;;
52590;SDS011;38483;42.620;25.394;2023-02-28T00:30:58;16.07;;;10.57;;
52590;SDS011;38483;42.620;25.394;2023-02-28T00:33:28;15.80;;;10.00;;
52590;SDS011;38483;42.620;25.394;2023-02-28T00:36:05;15.33;;;10.17;;
52590;SDS011;38483;42.620;25.394;2023-02-28T00:38:35;19.17;;;10.87;;
52590;SDS011;38483;42.620;25.394;2023-02-28T00:41:02;16.70;;;10.63;;
52590;SDS011;38483;42.620;25.394;2023-02-28T00:43:33;15.33;;;10.37;;
52590;SDS011;38483;42.620;25.394;2023-02-28T00:46:02;15.03;;;9.97;;
52590;SDS011;38483;42.620;25.394;2023-02-28T00:48:30;14.10;;;10.87;;
52590;SDS011;38483;42.620;25.394;2023-02-28T00:50:56;16.87;;;10.20;;
52590;SDS011;38483;42.620;25.394;2023-02-28T00:53:24;15.00;;;10.37;;
52590;SDS011;38483;42.620;25.394;2023-02-28T00:55:51;14.97;;;10.63;;
52590;SDS011;38483;42.620;25.394;2023-02-28T00:58:18;14.90;;;9.53;;
52590;SDS011;38483;42.620;25.394;2023-02-28T01:00:45;16.83;;;10.63;;
52590;SDS011;38483;42.620;25.394;2023-02-28T01:03:16;17.27;;;10.70;;
52590;SDS011;38483;42.620;25.394;2023-02-28T01:05:44;16.93;;;9.73;;
52590;SDS011;38483;42.620;25.394;2023-02-28T01:08:12;18.60;;;10.97;;
52590;SDS011;38483;42.620;25.394;2023-02-28T01:10:41;15.13;;;9.80;;
52590;SDS011;38483;42.620;25.394;2023-02-28T01:13:08;15.63;;;10.20;;
52590;SDS011;38483;42.620;25.394;2023-02-28T01:15:36;15.63;;;9.83;;
52590;SDS011;38483;42.620;25.394;2023-02-28T01:18:04;14.13;;;9.70;;
52590;SDS011;38483;42.620;25.394;2023-02-28T01:20:31;15.47;;;10.33;;
52590;SDS011;38483;42.620;25.394;2023-02-28T01:22:58;15.10;;;10.37;;
52590;SDS011;38483;42.620;25.394;2023-02-28T01:25:26;12.93;;;10.17;;
52590;SDS011;38483;42.620;25.394;2023-02-28T01:27:53;19.27;;;10.23;;
52590;SDS011;38483;42.620;25.394;2023-02-28T01:30:20;14.17;;;9.53;;
52590;SDS011;38483;42.620;25.394;2023-02-28T01:32:47;15.33;;;10.00;;
52590;SDS011;38483;42.620;25.394;2023-02-28T01:35:14;14.77;;;10.20;;
52590;SDS011;38483;42.620;25.394;2023-02-28T01:37:41;17.13;;;10.67;;
52590;SDS011;38483;42.620;25.394;2023-02-28T01:40:08;14.63;;;10.23;;
52590;SDS011;38483;42.620;25.394;2023-02-28T01:42:35;17.90;;;9.77;;
52590;SDS011;38483;42.620;25.394;2023-02-28T01:48:03;16.20;;;10.03;;
52590;SDS011;38483;42.620;25.394;2023-02-28T01:50:35;14.97;;;9.37;;
52590;SDS011;38483;42.620;25.394;2023-02-28T01:53:06;15.57;;;10.17;;
52590;SDS011;38483;42.620;25.394;2023-02-28T01:55:37;17.33;;;10.50;;
52590;SDS011;38483;42.620;25.394;2023-02-28T01:58:05;14.30;;;10.17;;
52590;SDS011;38483;42.620;25.394;2023-02-28T02:00:33;16.70;;;10.27;;
52590;SDS011;38483;42.620;25.394;2023-02-28T02:03:05;13.67;;;9.90;;
52590;SDS011;38483;42.620;25.394;2023-02-28T02:05:36;16.67;;;9.90;;
52590;SDS011;38483;42.620;25.394;2023-02-28T02:08:10;14.50;;;10.43;;
52590;SDS011;38483;42.620;25.394;2023-02-28T02:10:47;13.83;;;10.00;;
52590;SDS011;38483;42.620;25.394;2023-02-28T02:23:19;13.70;;;10.70;;
52590;SDS011;38483;42.620;25.394;2023-02-28T02:25:42;17.00;;;10.83;;
52590;SDS011;38483;42.620;25.394;2023-02-28T02:42:31;17.10;;;11.67;;
52590;SDS011;38483;42.620;25.394;2023-02-28T02:45:01;18.97;;;11.73;;
52590;SDS011;38483;42.620;25.394;2023-02-28T02:47:33;16.67;;;10.77;;
52590;SDS011;38483;42.620;25.394;2023-02-28T02:50:05;17.00;;;11.17;;
52590;SDS011;38483;42.620;25.394;2023-02-28T02:52:37;18.30;;;12.33;;
52590;SDS011;38483;42.620;25.394;2023-02-28T02:55:09;17.10;;;12.13;;
52590;SDS011;38483;42.620;25.394;2023-02-28T02:57:45;14.63;;;11.13;;
52590;SDS011;38483;42.620;25.394;2023-02-28T03:00:17;18.63;;;12.33;;
52590;SDS011;38483;42.620;25.394;2023-02-28T03:02:49;17.67;;;12.67;;
52590;SDS011;38483;42.620;25.394;2023-02-28T03:05:25;23.87;;;13.07;;
52590;SDS011;38483;42.620;25.394;2023-02-28T03:07:56;21.63;;;13.07;;
52590;SDS011;38483;42.620;25.394;2023-02-28T03:10:27;21.03;;;12.40;;
52590;SDS011;38483;42.620;25.394;2023-02-28T03:16:05;18.37;;;13.10;;
52590;SDS011;38483;42.620;25.394;2023-02-28T03:24:19;22.33;;;13.83;;
52590;SDS011;38483;42.620;25.394;2023-02-28T03:26:52;21.57;;;13.80;;
52590;SDS011;38483;42.620;25.394;2023-02-28T03:29:28;20.03;;;13.67;;
52590;SDS011;38483;42.620;25.394;2023-02-28T03:32:03;22.00;;;14.97;;
52590;SDS011;38483;42.620;25.394;2023-02-28T03:34:46;21.73;;;14.03;;
52590;SDS011;38483;42.620;25.394;2023-02-28T03:37:19;22.47;;;14.87;;
52590;SDS011;38483;42.620;25.394;2023-02-28T03:40:32;23.07;;;15.13;;
52590;SDS011;38483;42.620;25.394;2023-02-28T03:42:47;22.70;;;13.80;;
52590;SDS011;38483;42.620;25.394;2023-02-28T03:45:19;24.07;;;13.67;;
52590;SDS011;38483;42.620;25.394;2023-02-28T03:47:51;27.43;;;14.97;;
52590;SDS011;38483;42.620;25.394;2023-02-28T03:50:30;24.10;;;15.67;;
52590;SDS011;38483;42.620;25.394;2023-02-28T03:53:07;24.67;;;15.87;;
52590;SDS011;38483;42.620;25.394;2023-02-28T03:55:43;28.47;;;17.20;;
52590;SDS011;38483;42.620;25.394;2023-02-28T04:01:04;27.00;;;17.63;;
52590;SDS011;38483;42.620;25.394;2023-02-28T04:03:36;25.33;;;16.83;;
52590;SDS011;38483;42.620;25.394;2023-02-28T04:06:04;25.83;;;17.47;;
52590;SDS011;38483;42.620;25.394;2023-02-28T04:08:33;32.07;;;19.77;;
52590;SDS011;38483;42.620;25.394;2023-02-28T04:11:04;28.10;;;17.47;;
52590;SDS011;38483;42.620;25.394;2023-02-28T04:13:43;30.00;;;18.33;;
52590;SDS011;38483;42.620;25.394;2023-02-28T04:16:12;30.00;;;18.63;;
52590;SDS011;38483;42.620;25.394;2023-02-28T04:18:57;24.10;;;16.00;;
52590;SDS011;38483;42.620;25.394;2023-02-28T04:21:43;25.77;;;16.30;;
52590;SDS011;38483;42.620;25.394;2023-02-28T04:24:13;23.70;;;16.17;;
52590;SDS011;38483;42.620;25.394;2023-02-28T04:26:43;25.63;;;15.43;;
52590;SDS011;38483;42.620;25.394;2023-02-28T04:29:13;31.50;;;16.20;;
52590;SDS011;38483;42.620;25.394;2023-02-28T04:31:44;27.83;;;15.40;;
52590;SDS011;38483;42.620;25.394;2023-02-28T04:34:11;27.47;;;15.67;;
52590;SDS011;38483;42.620;25.394;2023-02-28T04:36:38;23.97;;;15.43;;
52590;SDS011;38483;42.620;25.394;2023-02-28T04:39:05;25.40;;;16.20;;
52590;SDS011;38483;42.620;25.394;2023-02-28T04:41:32;26.53;;;16.63;;
52590;SDS011;38483;42.620;25.394;2023-02-28T04:43:59;27.30;;;16.57;;
52590;SDS011;38483;42.620;25.394;2023-02-28T04:46:27;28.97;;;17.30;;
52590;SDS011;38483;42.620;25.394;2023-02-28T04:48:54;30.00;;;16.87;;
52590;SDS011;38483;42.620;25.394;2023-02-28T04:51:22;24.63;;;16.77;;
52590;SDS011;38483;42.620;25.394;2023-02-28T04:53:49;30.97;;;16.80;;
52590;SDS011;38483;42.620;25.394;2023-02-28T04:56:17;28.67;;;17.23;;
52590;SDS011;38483;42.620;25.394;2023-02-28T04:58:45;32.23;;;18.53;;
52590;SDS011;38483;42.620;25.394;2023-02-28T05:03:50;36.37;;;19.00;;
52590;SDS011;38483;42.620;25.394;2023-02-28T05:06:18;34.97;;;19.80;;
52590;SDS011;38483;42.620;25.394;2023-02-28T05:08:46;30.80;;;18.90;;
52590;SDS011;38483;42.620;25.394;2023-02-28T05:11:18;32.40;;;19.63;;
52590;SDS011;38483;42.620;25.394;2023-02-28T05:13:48;33.60;;;18.77;;
52590;SDS011;38483;42.620;25.394;2023-02-28T05:16:16;36.23;;;21.10;;
52590;SDS011;38483;42.620;25.394;2023-02-28T05:18:47;35.43;;;20.33;;
52590;SDS011;38483;42.620;25.394;2023-02-28T05:21:25;34.87;;;21.37;;
52590;SDS011;38483;42.620;25.394;2023-02-28T05:23:52;36.83;;;20.50;;
52590;SDS011;38483;42.620;25.394;2023-02-28T05:26:20;36.53;;;20.80;;
52590;SDS011;38483;42.620;25.394;2023-02-28T05:28:47;34.27;;;20.53;;
52590;SDS011;38483;42.620;25.394;2023-02-28T05:31:14;35.27;;;20.17;;
52590;SDS011;38483;42.620;25.394;2023-02-28T05:33:42;34.73;;;20.53;;
52590;SDS011;38483;42.620;25.394;2023-02-28T05:36:09;34.57;;;20.17;;
52590;SDS011;38483;42.620;25.394;2023-02-28T05:38:35;36.17;;;21.57;;
52590;SDS011;38483;42.620;25.394;2023-02-28T05:41:05;35.13;;;20.57;;
52590;SDS011;38483;42.620;25.394;2023-02-28T05:43:33;41.10;;;21.17;;
52590;SDS011;38483;42.620;25.394;2023-02-28T05:46:05;38.43;;;21.90;;
52590;SDS011;38483;42.620;25.394;2023-02-28T05:48:36;39.57;;;21.87;;
52590;SDS011;38483;42.620;25.394;2023-02-28T05:51:08;37.90;;;22.13;;
52590;SDS011;38483;42.620;25.394;2023-02-28T05:53:35;39.23;;;22.53;;
52590;SDS011;38483;42.620;25.394;2023-02-28T05:56:03;40.50;;;20.90;;
52590;SDS011;38483;42.620;25.394;2023-02-28T05:58:32;37.83;;;20.83;;
52590;SDS011;38483;42.620;25.394;2023-02-28T06:00:59;33.60;;;19.90;;
52590;SDS011;38483;42.620;25.394;2023-02-28T06:03:27;40.43;;;21.00;;
52590;SDS011;38483;42.620;25.394;2023-02-28T06:05:54;37.37;;;20.70;;
52590;SDS011;38483;42.620;25.394;2023-02-28T06:08:21;33.30;;;19.53;;
52590;SDS011;38483;42.620;25.394;2023-02-28T06:10:48;37.27;;;20.67;;
52590;SDS011;38483;42.620;25.394;2023-02-28T06:13:15;33.53;;;20.60;;
52590;SDS011;38483;42.620;25.394;2023-02-28T06:15:42;34.33;;;20.30;;
52590;SDS011;38483;42.620;25.394;2023-02-28T06:18:09;34.23;;;19.57;;
52590;SDS011;38483;42.620;25.394;2023-02-28T06:20:36;33.97;;;19.47;;
52590;SDS011;38483;42.620;25.394;2023-02-28T06:23:03;35.50;;;21.03;;
52590;SDS011;38483;42.620;25.394;2023-02-28T06:25:30;38.63;;;20.73;;
52590;SDS011;38483;42.620;25.394;2023-02-28T06:27:57;33.53;;;19.93;;
52590;SDS011;38483;42.620;25.394;2023-02-28T06:30:24;40.57;;;21.73;;
52590;SDS011;38483;42.620;25.394;2023-02-28T06:32:53;35.97;;;19.30;;
52590;SDS011;38483;42.620;25.394;2023-02-28T06:35:21;36.40;;;20.47;;
52590;SDS011;38483;42.620;25.394;2023-02-28T06:37:49;33.87;;;20.60;;
52590;SDS011;38483;42.620;25.394;2023-02-28T06:40:15;40.27;;;23.53;;
52590;SDS011;38483;42.620;25.394;2023-02-28T06:42:43;43.10;;;22.60;;
52590;SDS011;38483;42.620;25.394;2023-02-28T06:45:10;34.90;;;21.03;;
52590;SDS011;38483;42.620;25.394;2023-02-28T06:47:38;39.60;;;23.03;;
52590;SDS011;38483;42.620;25.394;2023-02-28T06:50:07;40.17;;;23.70;;
52590;SDS011;38483;42.620;25.394;2023-02-28T06:52:36;38.23;;;24.23;;
52590;SDS011;38483;42.620;25.394;2023-02-28T06:55:05;40.80;;;24.23;;
52590;SDS011;38483;42.620;25.394;2023-02-28T06:57:33;42.80;;;24.13;;
52590;SDS011;38483;42.620;25.394;2023-02-28T07:00:04;43.33;;;24.00;;
52590;SDS011;38483;42.620;25.394;2023-02-28T07:02:36;30.83;;;18.27;;
52590;SDS011;38483;42.620;25.394;2023-02-28T07:05:04;23.93;;;14.00;;
52590;SDS011;38483;42.620;25.394;2023-02-28T07:07:32;25.13;;;14.27;;
52590;SDS011;38483;42.620;25.394;2023-02-28T07:09:59;31.73;;;17.57;;
52590;SDS011;38483;42.620;25.394;2023-02-28T07:12:27;24.33;;;15.07;;
52590;SDS011;38483;42.620;25.394;2023-02-28T07:14:53;22.73;;;12.13;;
52590;SDS011;38483;42.620;25.394;2023-02-28T07:17:22;21.93;;;12.47;;
52590;SDS011;38483;42.620;25.394;2023-02-28T07:19:49;24.10;;;13.07;;
52590;SDS011;38483;42.620;25.394;2023-02-28T07:22:16;24.67;;;14.50;;
52590;SDS011;38483;42.620;25.394;2023-02-28T07:24:43;21.77;;;12.67;;
52590;SDS011;38483;42.620;25.394;2023-02-28T07:27:10;21.77;;;11.43;;
52590;SDS011;38483;42.620;25.394;2023-02-28T07:29:37;19.57;;;10.50;;
52590;SDS011;38483;42.620;25.394;2023-02-28T07:32:04;18.20;;;9.90;;
52590;SDS011;38483;42.620;25.394;2023-02-28T07:34:31;30.13;;;12.10;;
52590;SDS011;38483;42.620;25.394;2023-02-28T07:36:58;14.47;;;8.10;;
52590;SDS011;38483;42.620;25.394;2023-02-28T07:39:26;19.60;;;9.43;;
52590;SDS011;38483;42.620;25.394;2023-02-28T07:41:53;20.23;;;8.70;;
52590;SDS011;38483;42.620;25.394;2023-02-28T07:44:25;24.13;;;10.37;;
52590;SDS011;38483;42.620;25.394;2023-02-28T07:46:53;19.53;;;9.17;;
52590;SDS011;38483;42.620;25.394;2023-02-28T07:49:20;24.03;;;10.50;;
52590;SDS011;38483;42.620;25.394;2023-02-28T07:51:47;20.93;;;10.40;;
52590;SDS011;38483;42.620;25.394;2023-02-28T07:54:14;21.53;;;11.40;;
52590;SDS011;38483;42.620;25.394;2023-02-28T07:56:41;27.90;;;14.13;;
52590;SDS011;38483;42.620;25.394;2023-02-28T07:59:07;26.20;;;13.83;;
52590;SDS011;38483;42.620;25.394;2023-02-28T08:01:35;25.77;;;15.10;;
52590;SDS011;38483;42.620;25.394;2023-02-28T08:04:02;30.43;;;15.77;;
52590;SDS011;38483;42.620;25.394;2023-02-28T08:06:29;27.87;;;14.57;;
52590;SDS011;38483;42.620;25.394;2023-02-28T08:08:56;27.53;;;14.07;;
52590;SDS011;38483;42.620;25.394;2023-02-28T08:11:23;28.23;;;12.87;;
52590;SDS011;38483;42.620;25.394;2023-02-28T08:13:50;24.97;;;14.53;;
52590;SDS011;38483;42.620;25.394;2023-02-28T08:16:17;26.43;;;10.53;;
52590;SDS011;38483;42.620;25.394;2023-02-28T08:18:49;23.43;;;9.93;;
52590;SDS011;38483;42.620;25.394;2023-02-28T08:21:20;25.27;;;11.53;;
52590;SDS011;38483;42.620;25.394;2023-02-28T08:23:47;30.47;;;12.53;;
52590;SDS011;38483;42.620;25.394;2023-02-28T08:26:16;21.00;;;11.27;;
52590;SDS011;38483;42.620;25.394;2023-02-28T08:28:44;25.80;;;13.77;;
52590;SDS011;38483;42.620;25.394;2023-02-28T08:31:12;28.20;;;12.27;;
52590;SDS011;38483;42.620;25.394;2023-02-28T08:33:41;25.13;;;11.47;;
52590;SDS011;38483;42.620;25.394;2023-02-28T08:36:09;26.40;;;11.10;;
52590;SDS011;38483;42.620;25.394;2023-02-28T08:38:37;28.83;;;12.60;;
52590;SDS011;38483;42.620;25.394;2023-02-28T08:41:05;23.77;;;11.10;;
52590;SDS011;38483;42.620;25.394;2023-02-28T08:43:35;23.20;;;10.90;;
52590;SDS011;38483;42.620;25.394;2023-02-28T08:46:02;21.10;;;11.57;;
52590;SDS011;38483;42.620;25.394;2023-02-28T08:48:31;20.03;;;9.97;;
52590;SDS011;38483;42.620;25.394;2023-02-28T08:51:02;25.33;;;11.93;;
52590;SDS011;38483;42.620;25.394;2023-02-28T08:53:36;15.50;;;8.90;;
52590;SDS011;38483;42.620;25.394;2023-02-28T08:56:06;22.13;;;9.70;;
52590;SDS011;38483;42.620;25.394;2023-02-28T08:58:35;17.70;;;9.30;;
52590;SDS011;38483;42.620;25.394;2023-02-28T09:01:35;19.80;;;10.47;;
52590;SDS011;38483;42.620;25.394;2023-02-28T09:03:56;24.27;;;10.57;;
52590;SDS011;38483;42.620;25.394;2023-02-28T09:06:25;21.50;;;10.33;;
52590;SDS011;38483;42.620;25.394;2023-02-28T09:08:56;21.03;;;10.50;;
52590;SDS011;38483;42.620;25.394;2023-02-28T09:11:28;24.57;;;10.97;;
52590;SDS011;38483;42.620;25.394;2023-02-28T09:13:55;20.30;;;10.63;;
52590;SDS011;38483;42.620;25.394;2023-02-28T09:16:22;30.27;;;11.10;;
52590;SDS011;38483;42.620;25.394;2023-02-28T09:18:49;31.67;;;14.07;;
52590;SDS011;38483;42.620;25.394;2023-02-28T09:21:17;19.17;;;10.97;;
52590;SDS011;38483;42.620;25.394;2023-02-28T09:23:45;21.37;;;11.33;;
52590;SDS011;38483;42.620;25.394;2023-02-28T09:26:16;21.93;;;10.20;;
52590;SDS011;38483;42.620;25.394;2023-02-28T09:28:44;16.97;;;9.10;;
52590;SDS011;38483;42.620;25.394;2023-02-28T09:31:13;17.73;;;9.43;;
52590;SDS011;38483;42.620;25.394;2023-02-28T09:33:42;25.10;;;12.63;;
52590;SDS011;38483;42.620;25.394;2023-02-28T09:36:09;21.97;;;11.10;;
52590;SDS011;38483;42.620;25.394;2023-02-28T09:38:36;23.47;;;11.13;;
52590;SDS011;38483;42.620;25.394;2023-02-28T09:41:10;28.53;;;11.27;;
52590;SDS011;38483;42.620;25.394;2023-02-28T09:43:41;25.63;;;10.50;;
52590;SDS011;38483;42.620;25.394;2023-02-28T09:46:14;25.23;;;11.63;;
52590;SDS011;38483;42.620;25.394;2023-02-28T09:48:50;22.50;;;11.30;;
52590;SDS011;38483;42.620;25.394;2023-02-28T09:53:47;24.53;;;11.33;;
52590;SDS011;38483;42.620;25.394;2023-02-28T09:56:24;24.47;;;11.43;;
52590;SDS011;38483;42.620;25.394;2023-02-28T10:01:45;19.47;;;12.23;;
52590;SDS011;38483;42.620;25.394;2023-02-28T10:06:51;17.50;;;11.23;;
52590;SDS011;38483;42.620;25.394;2023-02-28T10:09:24;21.00;;;10.63;;
52590;SDS011;38483;42.620;25.394;2023-02-28T10:11:56;24.80;;;11.73;;
52590;SDS011;38483;42.620;25.394;2023-02-28T10:14:31;24.63;;;12.33;;
52590;SDS011;38483;42.620;25.394;2023-02-28T10:17:08;25.30;;;11.97;;
52590;SDS011;38483;42.620;25.394;2023-02-28T10:19:42;24.43;;;12.60;;
52590;SDS011;38483;42.620;25.394;2023-02-28T10:22:18;21.47;;;12.87;;
52590;SDS011;38483;42.620;25.394;2023-02-28T10:24:47;25.37;;;12.17;;
52590;SDS011;38483;42.620;25.394;2023-02-28T10:27:22;25.77;;;12.87;;
52590;SDS011;38483;42.620;25.394;2023-02-28T10:29:52;26.13;;;13.63;;
52590;SDS011;38483;42.620;25.394;2023-02-28T10:32:22;31.17;;;13.73;;
52590;SDS011;38483;42.620;25.394;2023-02-28T10:37:42;39.97;;;24.60;;
52590;SDS011;38483;42.620;25.394;2023-02-28T10:42:57;31.47;;;17.27;;
52590;SDS011;38483;42.620;25.394;2023-02-28T10:45:30;28.57;;;16.57;;
52590;SDS011;38483;42.620;25.394;2023-02-28T10:48:03;31.73;;;17.90;;
52590;SDS011;38483;42.620;25.394;2023-02-28T10:53:51;32.90;;;14.87;;
52590;SDS011;38483;42.620;25.394;2023-02-28T11:01:23;31.50;;;16.93;;
52590;SDS011;38483;42.620;25.394;2023-02-28T11:04:00;27.00;;;14.27;;
52590;SDS011;38483;42.620;25.394;2023-02-28T11:06:32;26.80;;;13.97;;
52590;SDS011;38483;42.620;25.394;2023-02-28T11:09:02;28.37;;;15.00;;
52590;SDS011;38483;42.620;25.394;2023-02-28T11:11:41;26.77;;;14.80;;
52590;SDS011;38483;42.620;25.394;2023-02-28T11:14:47;27.53;;;14.63;;
52590;SDS011;38483;42.620;25.394;2023-02-28T11:17:23;39.60;;;19.27;;
52590;SDS011;38483;42.620;25.394;2023-02-28T11:19:54;24.40;;;13.63;;
52590;SDS011;38483;42.620;25.394;2023-02-28T11:22:25;28.53;;;14.77;;
52590;SDS011;38483;42.620;25.394;2023-02-28T11:24:56;30.43;;;14.50;;
52590;SDS011;38483;42.620;25.394;2023-02-28T11:29:57;27.33;;;14.30;;
52590;SDS011;38483;42.620;25.394;2023-02-28T11:32:28;26.77;;;13.50;;
52590;SDS011;38483;42.620;25.394;2023-02-28T11:37:39;27.10;;;14.20;;
52590;SDS011;38483;42.620;25.394;2023-02-28T11:40:16;28.33;;;14.30;;
52590;SDS011;38483;42.620;25.394;2023-02-28T11:43:28;30.00;;;12.70;;
52590;SDS011;38483;42.620;25.394;2023-02-28T11:49:29;30.83;;;13.60;;
52590;SDS011;38483;42.620;25.394;2023-02-28T11:52:01;28.30;;;13.57;;
52590;SDS011;38483;42.620;25.394;2023-02-28T11:57:53;32.00;;;14.83;;
52590;SDS011;38483;42.620;25.394;2023-02-28T12:03:45;27.00;;;12.83;;
52590;SDS011;38483;42.620;25.394;2023-02-28T12:16:57;22.57;;;10.63;;
52590;SDS011;38483;42.620;25.394;2023-02-28T12:27:15;28.80;;;13.53;;
52590;SDS011;38483;42.620;25.394;2023-02-28T12:32:44;35.20;;;16.53;;
52590;SDS011;38483;42.620;25.394;2023-02-28T12:35:17;31.40;;;17.50;;
52590;SDS011;38483;42.620;25.394;2023-02-28T12:37:54;34.00;;;16.47;;
52590;SDS011;38483;42.620;25.394;2023-02-28T12:41:13;35.13;;;16.63;;
52590;SDS011;38483;42.620;25.394;2023-02-28T12:43:26;27.87;;;16.37;;
52590;SDS011;38483;42.620;25.394;2023-02-28T12:46:00;34.20;;;17.33;;
52590;SDS011;38483;42.620;25.394;2023-02-28T12:48:39;37.23;;;18.43;;
52590;SDS011;38483;42.620;25.394;2023-02-28T12:51:09;33.77;;;17.80;;
52590;SDS011;38483;42.620;25.394;2023-02-28T12:59:02;35.93;;;18.13;;
52590;SDS011;38483;42.620;25.394;2023-02-28T13:09:56;30.80;;;17.03;;
52590;SDS011;38483;42.620;25.394;2023-02-28T13:12:26;31.90;;;17.47;;
52590;SDS011;38483;42.620;25.394;2023-02-28T13:17:52;28.40;;;15.67;;
52590;SDS011;38483;42.620;25.394;2023-02-28T13:20:23;29.07;;;17.07;;
52590;SDS011;38483;42.620;25.394;2023-02-28T13:22:55;26.13;;;15.60;;
52590;SDS011;38483;42.620;25.394;2023-02-28T13:28:00;24.80;;;15.23;;
52590;SDS011;38483;42.620;25.394;2023-02-28T13:38:41;31.33;;;17.83;;
52590;SDS011;38483;42.620;25.394;2023-02-28T13:51:52;27.93;;;18.40;;
52590;SDS011;38483;42.620;25.394;2023-02-28T14:05:46;36.43;;;24.00;;
52590;SDS011;38483;42.620;25.394;2023-02-28T14:08:17;37.13;;;23.90;;
52590;SDS011;38483;42.620;25.394;2023-02-28T14:10:49;29.50;;;18.77;;
52590;SDS011;38483;42.620;25.394;2023-02-28T14:16:20;36.07;;;20.70;;
52590;SDS011;38483;42.620;25.394;2023-02-28T14:18:50;32.67;;;20.67;;
52590;SDS011;38483;42.620;25.394;2023-02-28T14:21:31;36.50;;;22.67;;
52590;SDS011;38483;42.620;25.394;2023-02-28T14:27:02;28.53;;;18.63;;
52590;SDS011;38483;42.620;25.394;2023-02-28T14:37:40;29.87;;;17.80;;
52590;SDS011;38483;42.620;25.394;2023-02-28T14:40:16;28.80;;;19.00;;
52590;SDS011;38483;42.620;25.394;2023-02-28T14:42:49;29.90;;;18.63;;
52590;SDS011;38483;42.620;25.394;2023-02-28T14:45:23;34.33;;;19.73;;
52590;SDS011;38483;42.620;25.394;2023-02-28T14:48:00;28.57;;;18.33;;
52590;SDS011;38483;42.620;25.394;2023-02-28T14:50:30;32.37;;;18.07;;
52590;SDS011;38483;42.620;25.394;2023-02-28T14:53:04;31.83;;;19.43;;
52590;SDS011;38483;42.620;25.394;2023-02-28T14:55:45;31.50;;;17.83;;
52590;SDS011;38483;42.620;25.394;2023-02-28T14:58:50;38.70;;;22.43;;
52590;SDS011;38483;42.620;25.394;2023-02-28T15:01:09;28.90;;;18.67;;
52590;SDS011;38483;42.620;25.394;2023-02-28T15:03:37;30.33;;;18.63;;
52590;SDS011;38483;42.620;25.394;2023-02-28T15:06:16;38.30;;;21.30;;
52590;SDS011;38483;42.620;25.394;2023-02-28T15:08:44;35.20;;;20.70;;
52590;SDS011;38483;42.620;25.394;2023-02-28T15:11:15;34.53;;;20.43;;
52590;SDS011;38483;42.620;25.394;2023-02-28T15:13:49;41.23;;;24.33;;
52590;SDS011;38483;42.620;25.394;2023-02-28T15:16:25;38.70;;;22.77;;
52590;SDS011;38483;42.620;25.394;2023-02-28T15:18:59;37.20;;;22.87;;
52590;SDS011;38483;42.620;25.394;2023-02-28T15:21:30;30.67;;;19.63;;
52590;SDS011;38483;42.620;25.394;2023-02-28T15:26:35;38.43;;;21.53;;
52590;SDS011;38483;42.620;25.394;2023-02-28T15:29:13;34.03;;;18.07;;
52590;SDS011;38483;42.620;25.394;2023-02-28T15:31:47;32.27;;;20.63;;
52590;SDS011;38483;42.620;25.394;2023-02-28T15:37:06;26.93;;;17.70;;
52590;SDS011;38483;42.620;25.394;2023-02-28T15:39:52;30.00;;;19.17;;
52590;SDS011;38483;42.620;25.394;2023-02-28T15:42:20;33.80;;;19.80;;
52590;SDS011;38483;42.620;25.394;2023-02-28T15:44:49;30.97;;;20.00;;
52590;SDS011;38483;42.620;25.394;2023-02-28T15:47:26;31.23;;;20.97;;
52590;SDS011;38483;42.620;25.394;2023-02-28T15:55:11;35.97;;;19.93;;
52590;SDS011;38483;42.620;25.394;2023-02-28T15:57:54;38.27;;;21.50;;
52590;SDS011;38483;42.620;25.394;2023-02-28T16:00:26;34.77;;;20.37;;
52590;SDS011;38483;42.620;25.394;2023-02-28T16:02:59;37.60;;;20.30;;
52590;SDS011;38483;42.620;25.394;2023-02-28T16:05:27;36.73;;;21.13;;
52590;SDS011;38483;42.620;25.394;2023-02-28T16:07:59;38.10;;;22.37;;
52590;SDS011;38483;42.620;25.394;2023-02-28T16:10:41;33.80;;;20.03;;
52590;SDS011;38483;42.620;25.394;2023-02-28T16:13:08;31.07;;;18.73;;
52590;SDS011;38483;42.620;25.394;2023-02-28T16:15:41;33.30;;;18.93;;
52590;SDS011;38483;42.620;25.394;2023-02-28T16:18:11;34.43;;;19.03;;
52590;SDS011;38483;42.620;25.394;2023-02-28T16:20:39;33.70;;;19.10;;
52590;SDS011;38483;42.620;25.394;2023-02-28T16:23:06;32.23;;;19.73;;
52590;SDS011;38483;42.620;25.394;2023-02-28T16:25:37;30.67;;;18.17;;
52590;SDS011;38483;42.620;25.394;2023-02-28T16:28:12;32.63;;;17.70;;
52590;SDS011;38483;42.620;25.394;2023-02-28T16:30:45;28.83;;;16.57;;
52590;SDS011;38483;42.620;25.394;2023-02-28T16:33:13;30.47;;;17.17;;
52590;SDS011;38483;42.620;25.394;2023-02-28T16:35:39;30.40;;;17.47;;
52590;SDS011;38483;42.620;25.394;2023-02-28T16:38:07;26.97;;;15.43;;
52590;SDS011;38483;42.620;25.394;2023-02-28T16:40:36;33.00;;;16.83;;
52590;SDS011;38483;42.620;25.394;2023-02-28T16:43:14;26.97;;;17.00;;
52590;SDS011;38483;42.620;25.394;2023-02-28T16:45:44;30.30;;;17.20;;
52590;SDS011;38483;42.620;25.394;2023-02-28T16:48:12;24.67;;;15.33;;
52590;SDS011;38483;42.620;25.394;2023-02-28T16:50:41;25.60;;;14.70;;
52590;SDS011;38483;42.620;25.394;2023-02-28T16:53:11;27.80;;;15.57;;
52590;SDS011;38483;42.620;25.394;2023-02-28T16:55:38;29.53;;;17.90;;
52590;SDS011;38483;42.620;25.394;2023-02-28T16:58:05;28.00;;;16.90;;
52590;SDS011;38483;42.620;25.394;2023-02-28T17:00:32;32.53;;;17.33;;
52590;SDS011;38483;42.620;25.394;2023-02-28T17:02:59;32.23;;;17.73;;
52590;SDS011;38483;42.620;25.394;2023-02-28T17:05:33;29.50;;;17.67;;
52590;SDS011;38483;42.620;25.394;2023-02-28T17:08:08;28.50;;;16.27;;
52590;SDS011;38483;42.620;25.394;2023-02-28T17:10:35;25.17;;;15.27;;
52590;SDS011;38483;42.620;25.394;2023-02-28T17:13:02;26.83;;;16.47;;
52590;SDS011;38483;42.620;25.394;2023-02-28T17:15:40;27.47;;;16.20;;
52590;SDS011;38483;42.620;25.394;2023-02-28T17:18:08;26.97;;;14.50;;
52590;SDS011;38483;42.620;25.394;2023-02-28T17:20:41;25.27;;;14.90;;
52590;SDS011;38483;42.620;25.394;2023-02-28T17:23:08;25.53;;;14.80;;
52590;SDS011;38483;42.620;25.394;2023-02-28T17:25:35;23.93;;;14.47;;